Time;durP1;ratioP1;P1;durP2;ratioP2;P2;SDS_P1;SDS_P2;PMS_P1;PMS_P2;Temp;Humidity;BMP_temperature;BMP_pressure;BME280_temperature;BME280_humidity;BME280_pressure;Samples;Min_cycle;Max_cycle;Signal;HPM_P1;HPM_P2
2022/08/04 00:02:08;;;;;;;1.70;1.45;;;21.70;53.80;21.80;100538.00;;;;4960306;27;87663;-63
2022/08/04 00:04:53;;;;;;;3.08;1.77;;;21.70;54.00;21.70;100539.00;;;;5010320;27;88088;-64
2022/08/04 00:07:34;;;;;;;1.77;1.05;;;21.60;54.10;21.70;100540.00;;;;4999570;27;105046;-63
2022/08/04 00:10:04;;;;;;;1.17;1.08;;;21.60;54.30;21.70;100531.00;;;;4999295;28;87655;-63
2022/08/04 00:12:34;;;;;;;2.15;1.02;;;21.60;54.40;21.70;100531.00;;;;4999485;27;86959;-63
2022/08/04 00:15:04;;;;;;;1.30;1.20;;;21.60;54.60;21.70;100538.00;;;;4998145;28;107749;-63
2022/08/04 00:17:38;;;;;;;1.80;1.67;;;21.50;54.80;21.70;100541.00;;;;4999531;27;91725;-63
2022/08/04 00:20:06;;;;;;;3.67;1.88;;;21.50;55.10;21.60;100534.00;;;;4998257;27;99053;-64
2022/08/04 00:22:34;;;;;;;1.35;1.25;;;21.50;55.30;21.60;100545.00;;;;5003828;27;95930;-63
2022/08/04 00:25:04;;;;;;;1.98;1.67;;;21.40;55.60;21.50;100535.00;;;;5010607;27;87852;-63
2022/08/04 00:27:31;;;;;;;1.67;1.33;;;21.40;56.00;21.50;100530.00;;;;5015967;27;88913;-63
2022/08/04 00:29:58;;;;;;;1.65;1.55;;;21.30;56.00;21.40;100535.00;;;;5017699;27;87902;-63
2022/08/04 00:32:25;;;;;;;1.23;1.15;;;21.20;56.00;21.30;100541.00;;;;5018686;27;87971;-63
2022/08/04 00:34:53;;;;;;;1.65;1.40;;;21.20;55.90;21.30;100543.00;;;;5005715;27;89434;-63
2022/08/04 00:37:21;;;;;;;1.50;1.35;;;21.10;55.70;21.30;100537.00;;;;5008931;27;98518;-63
2022/08/04 00:39:48;;;;;;;2.42;1.70;;;21.10;55.70;21.20;100544.00;;;;5017270;27;87712;-63
2022/08/04 00:42:29;;;;;;;1.40;1.15;;;21.10;55.60;21.20;100544.00;;;;5018403;27;88893;-63
2022/08/04 00:45:51;;;;;;;3.53;1.40;;;21.00;55.50;21.10;100544.00;;;;5017760;27;89627;-63
2022/08/04 00:49:16;;;;;;;2.15;1.42;;;21.00;55.50;21.00;100531.00;;;;4995500;27;108421;-63
2022/08/04 00:52:17;;;;;;;1.55;0.98;;;20.90;55.40;21.00;100527.00;;;;4997642;27;87580;-63
2022/08/04 00:55:08;;;;;;;2.50;1.77;;;20.90;55.50;21.00;100536.00;;;;5013368;27;87369;-63
2022/08/04 00:58:00;;;;;;;3.30;1.80;;;20.90;55.60;21.00;100530.00;;;;4998581;27;89127;-63
2022/08/04 01:00:27;;;;;;;2.13;1.52;;;20.90;55.70;21.00;100526.00;;;;5029526;27;104276;-63
2022/08/04 01:03:31;;;;;;;2.13;1.40;;;20.90;55.80;20.90;100534.00;;;;5015453;27;87881;-63
2022/08/04 01:07:00;;;;;;;6.00;1.75;;;20.80;55.90;20.80;100537.00;;;;5003580;27;87589;-63
2022/08/04 01:09:52;;;;;;;1.83;1.63;;;20.80;56.00;20.80;100531.00;;;;4943375;28;102011;-63
2022/08/04 01:13:04;;;;;;;1.75;1.35;;;20.70;56.00;20.80;100527.00;;;;4933997;28;87853;-63
2022/08/04 01:15:51;;;;;;;1.70;1.60;;;20.70;56.10;20.80;100533.00;;;;5013303;27;103387;-63
2022/08/04 01:18:51;;;;;;;2.30;1.50;;;20.60;56.10;20.70;100532.00;;;;5017245;27;87853;-63
2022/08/04 01:22:04;;;;;;;1.60;1.48;;;20.60;56.30;20.70;100532.00;;;;4998312;27;88741;-63
2022/08/04 01:24:57;;;;;;;1.35;1.13;;;20.60;56.40;20.80;100535.00;;;;5010176;27;108281;-63
2022/08/04 01:27:41;;;;;;;3.33;1.67;;;20.60;56.50;20.70;100528.00;;;;5000291;27;88094;-63
2022/08/04 01:30:07;;;;;;;1.85;1.75;;;20.60;56.60;20.70;100531.00;;;;5012979;27;87945;-63
2022/08/04 01:32:40;;;;;;;1.65;1.40;;;20.60;56.60;20.70;100531.00;;;;5016322;27;117870;-63
2022/08/04 01:35:27;;;;;;;1.70;1.60;;;20.60;56.90;20.70;100533.00;;;;5000073;27;88225;-63
2022/08/04 01:38:27;;;;;;;2.40;2.17;;;20.50;57.00;20.60;100533.00;;;;5014861;27;100517;-63
2022/08/04 01:40:58;;;;;;;2.17;1.98;;;20.50;57.20;20.60;100536.00;;;;5017614;27;96598;-63
2022/08/04 01:43:27;;;;;;;2.60;1.83;;;20.50;57.30;20.50;100542.00;;;;5014490;27;113628;-63
2022/08/04 01:46:01;;;;;;;3.65;1.85;;;20.40;57.50;20.50;100540.00;;;;4998078;28;88757;-63
2022/08/04 01:48:28;;;;;;;1.58;1.48;;;20.30;57.80;20.40;100549.00;;;;4995358;27;87775;-63
2022/08/04 01:51:05;;;;;;;1.40;1.30;;;20.30;58.10;20.30;100534.00;;;;5019183;27;99036;-63
2022/08/04 01:53:34;;;;;;;2.22;1.70;;;20.40;58.50;20.30;100530.00;;;;5016626;27;88354;-63
2022/08/04 01:56:02;;;;;;;2.50;2.03;;;20.10;58.60;20.20;100533.00;;;;5016376;27;106517;-63
2022/08/04 01:58:31;;;;;;;2.05;1.77;;;20.10;58.80;20.10;100526.00;;;;5014014;27;87791;-63
2022/08/04 02:01:09;;;;;;;2.13;1.92;;;20.00;59.00;20.10;100528.00;;;;5016939;27;87001;-63
2022/08/04 02:03:40;;;;;;;3.20;1.85;;;19.90;59.10;20.00;100525.00;;;;5015778;27;103629;-64
2022/08/04 02:06:39;;;;;;;1.95;1.17;;;19.90;59.20;19.90;100526.00;;;;5017345;27;88162;-64
2022/08/04 02:09:30;;;;;;;1.80;1.67;;;19.80;59.40;19.90;100522.00;;;;5014621;27;88661;-63
2022/08/04 02:12:04;;;;;;;1.35;1.23;;;19.80;59.50;19.90;100520.00;;;;5015740;27;88037;-63
2022/08/04 02:14:40;;;;;;;2.30;1.67;;;19.70;59.60;19.80;100519.00;;;;5006421;27;88999;-64
2022/08/04 02:17:17;;;;;;;1.48;1.38;;;19.70;59.60;19.80;100526.00;;;;5011245;27;87981;-64
2022/08/04 02:20:11;;;;;;;2.03;1.80;;;19.70;59.80;19.80;100522.00;;;;5008998;27;101745;-64
2022/08/04 02:22:52;;;;;;;2.08;1.85;;;19.70;59.90;19.80;100525.00;;;;5005476;27;87851;-63
2022/08/04 02:25:28;;;;;;;1.98;1.73;;;19.70;60.00;19.90;100515.00;;;;5011663;27;91397;-63
2022/08/04 02:28:34;;;;;;;2.83;2.08;;;19.70;60.20;19.80;100521.00;;;;4995348;27;95923;-63
2022/08/04 02:31:31;;;;;;;3.38;1.98;;;19.70;60.40;19.80;100522.00;;;;4996178;28;87767;-64
2022/08/04 02:34:14;;;;;;;2.20;1.88;;;19.70;60.50;19.80;100516.00;;;;5005534;27;87936;-64
2022/08/04 02:36:42;;;;;;;2.55;1.95;;;19.70;60.60;19.80;100511.00;;;;4995811;27;96544;-64
2022/08/04 02:39:10;;;;;;;2.05;1.75;;;19.60;60.80;19.80;100512.00;;;;5008746;27;107638;-64
2022/08/04 02:41:39;;;;;;;2.35;1.90;;;19.60;60.90;19.80;100505.00;;;;5015948;27;87683;-64
2022/08/04 02:44:07;;;;;;;2.58;1.73;;;19.60;61.00;19.80;100510.00;;;;5015866;27;87760;-64
2022/08/04 02:46:35;;;;;;;3.17;1.98;;;19.60;61.20;19.70;100508.00;;;;5016516;27;89225;-64
2022/08/04 02:49:07;;;;;;;1.88;1.77;;;19.60;61.40;19.70;100495.00;;;;5014407;27;87774;-64
2022/08/04 02:51:37;;;;;;;2.45;2.00;;;19.50;61.50;19.70;100507.00;;;;5016158;27;87693;-64
2022/08/04 02:54:05;;;;;;;2.17;1.95;;;19.50;61.70;19.60;100493.00;;;;5012117;27;87991;-64
2022/08/04 02:56:34;;;;;;;3.70;2.03;;;19.50;61.90;19.60;100497.00;;;;5016998;27;88226;-64
2022/08/04 02:59:03;;;;;;;3.25;1.80;;;19.50;62.10;19.60;100495.00;;;;5010247;27;87728;-64
2022/08/04 03:01:31;;;;;;;4.22;2.33;;;19.40;62.40;19.50;100501.00;;;;4995761;28;88625;-64
2022/08/04 03:04:08;;;;;;;3.53;2.10;;;19.40;62.60;19.50;100498.00;;;;5000110;27;87839;-64
2022/08/04 03:07:05;;;;;;;1.75;1.65;;;19.30;63.00;19.40;100504.00;;;;5006989;27;88933;-64
2022/08/04 03:10:10;;;;;;;2.08;1.88;;;19.30;63.50;19.30;100507.00;;;;5012285;27;109920;-64
2022/08/04 03:13:15;;;;;;;3.20;2.08;;;19.20;63.80;19.20;100505.00;;;;5013913;27;95943;-64
2022/08/04 03:15:50;;;;;;;2.17;1.75;;;19.10;64.00;19.20;100504.00;;;;5004970;27;87880;-63
2022/08/04 03:18:44;;;;;;;4.50;3.60;;;19.10;64.30;19.20;100495.00;;;;4995274;27;101478;-64
2022/08/04 03:22:04;;;;;;;2.30;1.90;;;19.00;64.40;19.10;100495.00;;;;4996352;28;88085;-64
2022/08/04 03:25:07;;;;;;;5.22;1.88;;;19.00;64.80;19.10;100506.00;;;;5012940;27;87513;-64
2022/08/04 03:28:17;;;;;;;3.28;2.30;;;19.00;65.00;19.00;100502.00;;;;4996960;27;87956;-64
2022/08/04 03:31:04;;;;;;;3.95;2.10;;;19.00;65.50;19.00;100507.00;;;;4944976;27;89648;-64
2022/08/04 03:33:57;;;;;;;2.85;1.83;;;18.90;65.90;19.00;100505.00;;;;4994311;27;88911;-64
2022/08/04 03:37:10;;;;;;;2.25;2.00;;;18.90;66.20;19.00;100502.00;;;;5012524;27;87648;-64
2022/08/04 03:40:02;;;;;;;2.67;2.17;;;18.90;66.40;19.00;100498.00;;;;4997482;27;89519;-64
2022/08/04 03:42:50;;;;;;;2.45;2.13;;;18.80;66.80;19.00;100507.00;;;;5004317;27;88070;-64
2022/08/04 03:45:56;;;;;;;3.35;2.65;;;18.80;67.20;19.00;100497.00;;;;4994927;27;88505;-64
2022/08/04 03:48:52;;;;;;;2.53;2.10;;;18.80;67.50;19.00;100506.00;;;;4996682;27;87665;-64
2022/08/04 03:54:48;;;;;;;2.45;2.22;;;18.80;68.30;19.00;100508.00;;;;5007711;27;87831;-64
2022/08/04 03:57:33;;;;;;;2.00;1.88;;;18.90;68.60;19.00;100505.00;;;;5011903;27;88604;-64
2022/08/04 04:00:08;;;;;;;2.25;1.60;;;18.90;69.30;19.00;100510.00;;;;5013362;27;88944;-64
2022/08/04 04:03:08;;;;;;;4.10;2.13;;;18.90;69.60;19.10;100498.00;;;;5014353;27;88330;-64
2022/08/04 04:06:13;;;;;;;2.58;2.28;;;19.00;70.00;19.10;100501.00;;;;5014574;27;87903;-64
2022/08/04 04:09:03;;;;;;;2.28;1.98;;;19.00;70.30;19.10;100493.00;;;;5011819;27;87983;-64
2022/08/04 04:11:56;;;;;;;2.97;2.03;;;19.00;70.50;19.10;100492.00;;;;5015530;27;87784;-64
2022/08/04 04:14:55;;;;;;;2.78;2.25;;;19.00;71.00;19.20;100499.00;;;;5013681;27;87568;-64
2022/08/04 04:17:51;;;;;;;3.50;1.85;;;19.00;71.10;19.20;100505.00;;;;5012819;27;87976;-64
2022/08/04 04:20:35;;;;;;;2.55;1.90;;;19.10;71.50;19.30;100504.00;;;;4995079;27;87888;-64
2022/08/04 04:23:29;;;;;;;2.53;2.30;;;19.10;71.70;19.40;100501.00;;;;5000948;27;87875;-64
2022/08/04 04:26:21;;;;;;;2.42;1.90;;;19.20;72.30;19.50;100500.00;;;;5007820;27;102424;-64
2022/08/04 04:28:52;;;;;;;2.30;2.20;;;19.30;73.00;19.60;100505.00;;;;4994494;28;88646;-64
2022/08/04 04:31:42;;;;;;;1.60;1.50;;;19.40;73.40;19.80;100508.00;;;;5007497;27;88070;-64
2022/08/04 04:34:55;;;;;;;2.03;1.85;;;19.60;74.30;19.90;100512.00;;;;4995631;27;87802;-64
2022/08/04 04:37:48;;;;;;;2.75;2.28;;;19.70;74.30;20.00;100511.00;;;;5009604;27;91112;-64
2022/08/04 04:40:33;;;;;;;4.30;2.10;;;19.90;74.60;20.20;100514.00;;;;5004666;27;88005;-64
2022/08/04 04:43:30;;;;;;;3.55;2.50;;;20.00;74.80;20.40;100510.00;;;;4991791;27;110348;-64
2022/08/04 04:46:26;;;;;;;2.63;1.88;;;20.20;74.90;20.60;100517.00;;;;4994285;27;87501;-65
2022/08/04 04:49:20;;;;;;;3.97;2.42;;;20.40;75.00;20.80;100510.00;;;;4994758;27;87598;-64
2022/08/04 04:52:13;;;;;;;6.43;2.20;;;20.60;75.40;21.00;100513.00;;;;4992652;27;88490;-65
2022/08/04 04:55:13;;;;;;;2.97;2.47;;;20.80;75.40;21.20;100523.00;;;;4998053;27;87999;-65
2022/08/04 04:57:41;;;;;;;2.10;1.92;;;21.00;75.20;21.40;100518.00;;;;4978405;27;88700;-65
2022/08/04 05:00:09;;;;;;;2.30;1.77;;;21.20;75.20;21.60;100522.00;;;;4994028;27;88066;-65
2022/08/04 05:03:24;;;;;;;1.90;1.80;;;21.30;75.10;21.70;100529.00;;;;4994639;27;88683;-65
2022/08/04 05:06:09;;;;;;;3.63;2.30;;;21.60;75.10;22.00;100529.00;;;;4995002;27;87908;-65
2022/08/04 05:08:58;;;;;;;3.65;2.78;;;21.70;74.90;22.20;100523.00;;;;4996914;27;89957;-65
2022/08/04 05:12:03;;;;;;;3.08;1.88;;;21.90;74.90;22.40;100518.00;;;;4994765;27;94349;-65
2022/08/04 05:14:47;;;;;;;3.90;2.00;;;22.10;74.50;22.60;100513.00;;;;4993142;27;106963;-65
2022/08/04 05:17:24;;;;;;;2.28;2.17;;;22.30;74.40;22.80;100527.00;;;;4992927;27;87254;-65
2022/08/04 05:20:32;;;;;;;2.92;2.40;;;22.50;74.20;23.00;100519.00;;;;4992999;27;101402;-65
2022/08/04 05:23:07;;;;;;;2.13;1.90;;;22.70;73.80;23.20;100525.00;;;;4999298;27;88110;-65
2022/08/04 05:25:39;;;;;;;2.55;1.80;;;22.90;73.10;23.40;100523.00;;;;4995073;27;89196;-65
2022/08/04 05:28:35;;;;;;;4.07;2.28;;;23.20;72.70;23.70;100515.00;;;;4994387;27;108768;-65
2022/08/04 05:31:09;;;;;;;4.32;2.15;;;23.40;72.10;23.90;100519.00;;;;4998380;27;102462;-65
2022/08/04 05:33:56;;;;;;;2.10;1.90;;;23.60;71.60;24.20;100517.00;;;;4998119;27;95330;-65
2022/08/04 05:36:37;;;;;;;2.40;1.95;;;23.80;71.00;24.40;100521.00;;;;5006821;27;108880;-65
2022/08/04 05:39:03;;;;;;;2.45;1.92;;;24.10;70.50;24.70;100517.00;;;;4994456;27;88607;-66
2022/08/04 05:41:32;;;;;;;4.18;2.08;;;24.30;69.90;25.00;100518.00;;;;4992926;27;87821;-65
2022/08/04 05:43:59;;;;;;;1.88;1.65;;;24.60;69.20;25.20;100521.00;;;;4993870;27;101552;-65
2022/08/04 05:46:27;;;;;;;3.58;2.05;;;24.90;68.40;25.50;100521.00;;;;4991553;27;116294;-65
2022/08/04 05:48:53;;;;;;;2.42;2.22;;;25.10;67.40;25.70;100522.00;;;;4990143;27;117346;-65
2022/08/04 05:51:19;;;;;;;5.18;1.98;;;25.40;66.70;26.00;100523.00;;;;4993547;27;109345;-65
2022/08/04 05:53:46;;;;;;;2.00;1.58;;;25.60;65.90;26.30;100527.00;;;;4993872;27;106373;-66
2022/08/04 05:56:14;;;;;;;3.45;2.38;;;25.90;65.10;26.60;100521.00;;;;4992932;27;88602;-65
2022/08/04 05:58:41;;;;;;;1.67;1.58;;;26.20;64.40;26.80;100521.00;;;;4993748;27;88595;-65
2022/08/04 06:01:09;;;;;;;3.97;1.92;;;26.50;63.50;27.10;100527.00;;;;5007656;27;109768;-65
2022/08/04 06:03:37;;;;;;;4.47;1.27;;;26.70;62.10;27.30;100521.00;;;;4997301;27;87910;-63
2022/08/04 06:06:04;;;;;;;1.60;1.50;;;26.90;60.60;27.50;100528.00;;;;4997633;27;88180;-65
2022/08/04 06:08:30;;;;;;;2.00;1.77;;;27.20;59.70;27.80;100526.00;;;;5009414;27;103249;-63
2022/08/04 06:11:03;;;;;;;2.25;1.52;;;27.40;58.80;28.00;100519.00;;;;4997074;27;87822;-64
2022/08/04 06:13:35;;;;;;;1.50;1.40;;;27.60;58.00;28.20;100527.00;;;;5009938;27;97896;-63
2022/08/04 06:16:01;;;;;;;2.30;1.38;;;27.90;57.60;28.50;100529.00;;;;4990585;27;108334;-63
2022/08/04 06:18:29;;;;;;;7.75;1.30;;;28.20;57.10;28.80;100525.00;;;;4992171;27;88842;-64
2022/08/04 06:20:57;;;;;;;1.30;1.20;;;28.40;56.40;29.00;100529.00;;;;4993054;27;110503;-63
2022/08/04 06:23:26;;;;;;;2.50;1.63;;;28.70;55.20;29.30;100517.00;;;;4998221;27;87912;-66
2022/08/04 06:25:56;;;;;;;2.83;1.92;;;28.90;54.70;29.60;100528.00;;;;4995850;27;106105;-63
2022/08/04 06:28:22;;;;;;;3.35;1.85;;;29.10;53.90;29.80;100533.00;;;;4992002;27;88569;-63
2022/08/04 06:30:50;;;;;;;2.35;1.45;;;29.40;53.50;30.00;100529.00;;;;4991703;27;113471;-63
2022/08/04 06:33:32;;;;;;;2.60;1.90;;;29.50;52.90;30.30;100534.00;;;;4975616;27;87046;-63
2022/08/04 06:35:59;;;;;;;2.25;1.08;;;29.80;52.20;30.50;100534.00;;;;5005828;27;89110;-63
2022/08/04 06:38:27;;;;;;;1.38;1.23;;;30.10;50.50;30.60;100539.00;;;;4995781;27;108267;-63
2022/08/04 06:40:56;;;;;;;1.48;1.00;;;30.30;49.30;30.70;100532.00;;;;4997542;27;88903;-63
2022/08/04 06:43:24;;;;;;;2.30;1.70;;;30.30;48.40;30.70;100538.00;;;;4994624;27;87857;-63
2022/08/04 06:45:51;;;;;;;1.27;1.17;;;30.30;47.80;30.70;100533.00;;;;5023120;27;87919;-64
2022/08/04 06:48:18;;;;;;;2.53;1.65;;;30.40;47.60;30.70;100527.00;;;;4990386;27;88131;-63
2022/08/04 06:50:48;;;;;;;1.23;1.13;;;30.40;47.50;30.80;100529.00;;;;5000245;27;110670;-63
2022/08/04 06:53:15;;;;;;;1.85;0.95;;;30.40;47.20;30.90;100532.00;;;;4994285;27;87966;-64
2022/08/04 06:55:46;;;;;;;10.65;1.52;;;30.50;47.20;31.00;100540.00;;;;4993822;27;87871;-64
2022/08/04 06:58:14;;;;;;;1.75;1.20;;;30.60;47.20;31.20;100538.00;;;;4992881;27;102570;-64
2022/08/04 07:00:42;;;;;;;1.00;0.90;;;30.80;46.80;31.50;100533.00;;;;5000124;27;90317;-63
2022/08/04 07:03:08;;;;;;;1.45;0.93;;;31.10;46.50;31.70;100537.00;;;;5007891;27;87889;-63
2022/08/04 07:05:35;;;;;;;1.85;1.40;;;31.30;46.40;32.00;100537.00;;;;5008928;27;89947;-64
2022/08/04 07:08:01;;;;;;;1.17;1.00;;;31.50;45.90;32.20;100531.00;;;;4996177;27;88887;-64
2022/08/04 07:10:28;;;;;;;1.92;1.13;;;31.80;45.10;32.40;100529.00;;;;4992808;27;110426;-63
2022/08/04 07:12:58;;;;;;;1.45;0.90;;;32.00;44.60;32.70;100538.00;;;;4998412;27;87892;-63
2022/08/04 07:15:25;;;;;;;1.95;1.10;;;32.30;44.20;32.80;100533.00;;;;4993652;27;88992;-63
2022/08/04 07:17:53;;;;;;;1.05;0.70;;;32.40;42.30;32.90;100535.00;;;;4992875;27;88665;-64
2022/08/04 07:20:19;;;;;;;1.52;1.00;;;32.50;42.50;33.00;100534.00;;;;4992200;27;87702;-63
2022/08/04 07:22:48;;;;;;;3.30;0.82;;;32.60;42.50;33.20;100534.00;;;;4993350;27;86732;-64
2022/08/04 07:25:15;;;;;;;1.10;0.82;;;32.80;42.00;33.40;100536.00;;;;4992899;27;117533;-64
2022/08/04 07:27:42;;;;;;;0.75;0.60;;;32.90;41.90;33.60;100539.00;;;;4991905;27;88388;-64
2022/08/04 07:30:09;;;;;;;1.55;0.93;;;33.10;41.60;33.80;100533.00;;;;4989588;27;89062;-63
2022/08/04 07:32:37;;;;;;;1.85;0.98;;;33.40;42.00;34.00;100542.00;;;;4992002;27;87766;-64
2022/08/04 07:35:05;;;;;;;0.75;0.73;;;33.60;40.70;34.30;100536.00;;;;4991724;27;88592;-64
2022/08/04 07:37:31;;;;;;;0.85;0.65;;;33.90;40.40;34.50;100539.00;;;;4993022;27;106955;-64
2022/08/04 07:39:57;;;;;;;1.58;1.10;;;34.10;39.70;34.80;100532.00;;;;4994973;27;110740;-64
2022/08/04 07:42:23;;;;;;;1.30;0.85;;;34.40;39.10;35.00;100536.00;;;;4989183;27;108193;-64
2022/08/04 07:44:49;;;;;;;1.33;0.90;;;34.60;38.60;35.10;100524.00;;;;4989247;27;117097;-64
2022/08/04 07:47:15;;;;;;;1.08;0.85;;;34.70;37.70;35.10;100528.00;;;;4995304;27;117629;-65
2022/08/04 07:49:41;;;;;;;0.82;0.82;;;34.80;37.20;35.20;100527.00;;;;5006003;27;108771;-64
2022/08/04 07:52:07;;;;;;;5.28;0.68;;;34.80;36.60;35.10;100531.00;;;;4991590;27;107464;-63
2022/08/04 07:54:34;;;;;;;2.40;0.85;;;34.80;36.00;35.00;100535.00;;;;4991868;27;88925;-64
2022/08/04 07:57:00;;;;;;;0.60;0.60;;;34.70;36.20;34.90;100533.00;;;;4996984;27;96665;-63
2022/08/04 07:59:25;;;;;;;3.10;0.80;;;34.70;36.30;34.80;100539.00;;;;4992193;27;87823;-64
2022/08/04 08:01:52;;;;;;;1.40;1.00;;;34.60;36.40;34.80;100535.00;;;;4991640;27;109169;-64
2022/08/04 08:04:20;;;;;;;0.80;0.63;;;34.50;36.40;34.90;100530.00;;;;4989390;27;88121;-64
2022/08/04 08:06:46;;;;;;;2.50;1.02;;;34.60;36.40;35.00;100531.00;;;;4994955;27;88117;-64
2022/08/04 08:09:13;;;;;;;0.80;0.70;;;34.60;36.50;35.20;100534.00;;;;4992631;27;88125;-64
2022/08/04 08:11:47;;;;;;;0.65;0.65;;;34.80;36.30;35.40;100533.00;;;;4996225;27;87393;-65
2022/08/04 08:14:14;;;;;;;1.05;0.80;;;35.00;35.60;35.40;100526.00;;;;4989589;27;89313;-65
2022/08/04 08:16:40;;;;;;;2.63;0.63;;;35.00;35.30;35.50;100522.00;;;;5005853;27;105881;-65
2022/08/04 08:19:06;;;;;;;1.95;1.08;;;35.10;35.30;35.50;100521.00;;;;4989187;27;88508;-65
2022/08/04 08:21:32;;;;;;;0.88;0.50;;;35.20;35.00;35.60;100515.00;;;;4994482;27;87807;-65
2022/08/04 08:23:58;;;;;;;3.05;0.88;;;35.20;34.90;35.80;100520.00;;;;4992471;27;107949;-64
2022/08/04 08:26:25;;;;;;;1.23;0.85;;;35.30;34.90;35.80;100523.00;;;;4995046;27;88075;-65
2022/08/04 08:28:51;;;;;;;1.40;0.95;;;35.40;34.30;35.80;100519.00;;;;5009392;27;104823;-64
2022/08/04 08:31:17;;;;;;;1.88;1.00;;;35.40;34.30;35.70;100525.00;;;;5001268;27;87827;-65
2022/08/04 08:33:43;;;;;;;0.93;0.50;;;35.40;34.20;35.90;100523.00;;;;4994009;27;117691;-65
2022/08/04 08:36:20;;;;;;;1.55;0.50;;;35.40;34.30;36.10;100524.00;;;;4994389;27;88081;-65
2022/08/04 08:39:11;;;;;;;1.65;0.70;;;35.60;33.70;36.10;100530.00;;;;4995206;27;102411;-64
2022/08/04 08:42:11;;;;;;;1.13;0.88;;;35.70;33.60;36.10;100532.00;;;;4994749;27;99981;-65
2022/08/04 08:45:27;;;;;;;0.73;0.63;;;35.70;33.40;36.30;100530.00;;;;4994296;27;89833;-65
2022/08/04 08:48:40;;;;;;;1.55;1.02;;;35.80;33.30;36.50;100524.00;;;;4996531;27;89071;-65
2022/08/04 08:51:59;;;;;;;0.55;0.52;;;36.00;33.00;36.60;100530.00;;;;4987611;27;87981;-64
2022/08/04 08:54:35;;;;;;;0.90;0.80;;;36.10;32.30;36.70;100528.00;;;;4994733;27;87873;-65
2022/08/04 08:57:22;;;;;;;0.73;0.50;;;36.20;32.30;36.80;100531.00;;;;4993139;27;90011;-65
2022/08/04 09:00:09;;;;;;;0.90;0.57;;;36.30;32.10;36.80;100528.00;;;;4991991;27;88613;-65
2022/08/04 09:03:04;;;;;;;0.55;0.55;;;36.40;32.00;36.70;100538.00;;;;4992434;27;87912;-65
2022/08/04 09:06:15;;;;;;;1.05;0.60;;;36.30;31.60;36.60;100532.00;;;;4995196;27;90641;-65
2022/08/04 09:09:03;;;;;;;0.60;0.60;;;36.30;31.90;36.70;100517.00;;;;4991736;27;112210;-65
2022/08/04 09:11:44;;;;;;;1.27;0.90;;;36.20;31.90;36.80;100526.00;;;;5008724;27;107538;-65
2022/08/04 09:14:43;;;;;;;0.60;0.50;;;36.30;32.20;37.00;100527.00;;;;4991922;27;104295;-65
2022/08/04 09:17:34;;;;;;;1.05;0.73;;;36.40;32.40;37.40;100532.00;;;;4998430;27;95440;-65
2022/08/04 09:20:18;;;;;;;1.50;0.57;;;36.80;32.30;37.70;100526.00;;;;4992471;27;88700;-65
2022/08/04 09:23:23;;;;;;;1.17;0.80;;;37.10;31.60;38.00;100522.00;;;;4991148;27;109987;-65
2022/08/04 09:26:20;;;;;;;1.17;0.68;;;37.40;31.60;38.40;100521.00;;;;4977378;27;88101;-65
2022/08/04 09:29:33;;;;;;;1.50;0.93;;;37.70;31.50;39.00;100525.00;;;;5001324;27;88448;-65
2022/08/04 09:32:23;;;;;;;1.30;0.88;;;38.20;31.40;39.40;100523.00;;;;4996235;27;88520;-65
2022/08/04 09:35:41;;;;;;;1.08;0.63;;;38.70;31.10;39.70;100518.00;;;;4993685;27;88368;-66
2022/08/04 09:38:41;;;;;;;0.98;0.57;;;39.00;30.30;39.70;100514.00;;;;5009946;27;87796;-64
2022/08/04 09:41:24;;;;;;;0.60;0.47;;;39.10;30.10;39.50;100523.00;;;;5008353;27;101282;-65
2022/08/04 09:44:12;;;;;;;0.60;0.60;;;39.00;29.30;39.30;100512.00;;;;4993045;27;88786;-64
2022/08/04 09:47:19;;;;;;;3.10;0.77;;;38.80;29.40;39.20;100510.00;;;;4992384;27;93566;-64
2022/08/04 09:50:13;;;;;;;0.82;0.60;;;38.80;29.80;39.30;100518.00;;;;4991481;27;104428;-65
2022/08/04 09:52:57;;;;;;;1.02;0.80;;;38.80;29.60;39.30;100517.00;;;;4994445;27;87788;-65
2022/08/04 09:55:52;;;;;;;3.45;0.95;;;38.80;29.30;39.00;100509.00;;;;4991133;27;88046;-65
2022/08/04 09:58:45;;;;;;;1.13;0.65;;;38.60;29.10;38.80;100510.00;;;;4993810;27;88643;-65
2022/08/04 10:01:16;;;;;;;1.63;0.60;;;38.40;29.40;38.90;100508.00;;;;4993149;27;87867;-64
2022/08/04 10:03:48;;;;;;;1.13;0.57;;;38.40;29.70;39.10;100515.00;;;;4991914;27;86981;-64
2022/08/04 10:06:35;;;;;;;16.40;0.63;;;38.50;29.50;39.30;100501.00;;;;4994624;27;104406;-64
2022/08/04 10:09:27;;;;;;;2.58;0.77;;;38.60;29.50;39.40;100502.00;;;;4993476;27;88674;-65
2022/08/04 10:12:37;;;;;;;1.35;0.70;;;38.80;29.30;39.50;100507.00;;;;4995608;27;88712;-65
2022/08/04 10:15:17;;;;;;;1.00;0.70;;;38.80;29.30;39.50;100499.00;;;;4992826;27;87529;-65
2022/08/04 10:18:14;;;;;;;1.20;0.85;;;38.90;28.70;39.60;100506.00;;;;4992252;27;97060;-65
2022/08/04 10:20:56;;;;;;;1.35;0.60;;;39.00;28.80;39.70;100495.00;;;;4991109;27;88031;-65
2022/08/04 10:24:12;;;;;;;1.35;0.60;;;39.10;28.80;39.90;100488.00;;;;4995898;27;95391;-65
2022/08/04 10:27:05;;;;;;;0.90;0.50;;;39.20;29.20;40.10;100494.00;;;;4996262;27;88498;-65
2022/08/04 10:29:42;;;;;;;0.98;0.75;;;39.40;28.90;40.30;100490.00;;;;4993622;27;88120;-65
2022/08/04 10:32:24;;;;;;;0.68;0.30;;;39.50;28.10;40.30;100495.00;;;;5001915;27;87061;-64
2022/08/04 10:35:10;;;;;;;0.43;0.30;;;39.50;28.20;40.40;100497.00;;;;4989746;27;103753;-65
2022/08/04 10:38:09;;;;;;;0.55;0.38;;;39.70;28.30;40.50;100486.00;;;;4993875;27;87845;-65
2022/08/04 10:40:55;;;;;;;1.08;0.55;;;39.70;28.10;40.40;100488.00;;;;4990486;27;88722;-65
2022/08/04 10:43:48;;;;;;;0.90;0.60;;;39.70;27.60;40.30;100481.00;;;;4990613;27;103880;-63
2022/08/04 10:46:20;;;;;;;0.80;0.80;;;39.70;27.50;40.50;100482.00;;;;4994226;27;102153;-64
2022/08/04 10:48:57;;;;;;;3.60;1.10;;;39.70;27.80;40.80;100476.00;;;;4991970;27;92838;-64
2022/08/04 10:51:46;;;;;;;2.35;0.90;;;40.00;28.00;41.30;100472.00;;;;4991183;27;88087;-64
2022/08/04 10:54:26;;;;;;;1.05;0.80;;;40.30;27.50;41.30;100479.00;;;;4993811;27;90239;-65
2022/08/04 10:57:01;;;;;;;1.58;0.50;;;40.50;26.80;41.00;100475.00;;;;4999335;27;88194;-64
2022/08/04 10:59:58;;;;;;;0.68;0.68;;;40.40;26.50;40.90;100473.00;;;;4992574;27;91049;-64
2022/08/04 11:02:33;;;;;;;1.38;0.80;;;40.30;26.60;40.70;100475.00;;;;4990110;27;108370;-61
2022/08/04 11:05:16;;;;;;;2.17;0.80;;;40.10;26.50;40.60;100470.00;;;;4990537;27;103800;-62
2022/08/04 11:07:58;;;;;;;3.22;1.08;;;40.00;26.80;40.70;100474.00;;;;5010707;27;88777;-62
2022/08/04 11:10:31;;;;;;;0.85;0.50;;;40.00;27.00;40.80;100465.00;;;;4992581;27;91072;-63
2022/08/04 11:13:02;;;;;;;0.60;0.60;;;40.00;27.30;40.90;100474.00;;;;4990180;27;88264;-63
2022/08/04 11:15:45;;;;;;;1.35;0.98;;;40.10;26.90;41.00;100465.00;;;;4989278;27;109766;-63
2022/08/04 11:18:46;;;;;;;1.73;0.77;;;40.20;26.50;40.80;100473.00;;;;4990382;27;88057;-62
2022/08/04 11:21:32;;;;;;;0.70;0.70;;;40.20;26.50;40.80;100474.00;;;;4991191;27;87596;-62
2022/08/04 11:24:22;;;;;;;0.88;0.68;;;40.10;26.80;40.90;100473.00;;;;5005184;27;97948;-63
2022/08/04 11:26:56;;;;;;;1.00;0.68;;;40.10;26.90;41.20;100463.00;;;;4995763;27;88348;-62
2022/08/04 11:29:42;;;;;;;1.50;0.90;;;40.30;27.00;41.80;100467.00;;;;4994870;27;87988;-62
2022/08/04 11:32:20;;;;;;;0.63;0.38;;;40.80;26.60;42.00;100468.00;;;;4989745;27;103479;-62
2022/08/04 11:34:56;;;;;;;1.80;1.10;;;41.10;26.00;42.10;100466.00;;;;4989233;27;88796;-63
2022/08/04 11:37:28;;;;;;;1.02;0.75;;;41.30;25.80;42.00;100461.00;;;;4995044;27;108737;-64
2022/08/04 11:40:01;;;;;;;1.60;0.60;;;41.20;25.80;41.90;100454.00;;;;4989535;27;88189;-62
2022/08/04 11:42:40;;;;;;;0.40;0.40;;;41.20;25.90;42.00;100454.00;;;;4992375;27;88133;-63
2022/08/04 11:45:17;;;;;;;0.70;0.50;;;41.20;26.20;42.40;100454.00;;;;4989523;27;106831;-64
2022/08/04 11:48:05;;;;;;;1.25;0.73;;;41.50;26.30;42.80;100464.00;;;;4992893;27;108880;-64
2022/08/04 11:51:01;;;;;;;1.08;0.57;;;41.90;25.80;42.70;100456.00;;;;4990442;27;94037;-64